College Park, South Carolina
Current Conditions -  °F | °C
As of 8:56 AM on Thursday 23 Oct 2014 (Local Time) from KCHS Reporting Station
Clear Clear  
Wind Chill: 52°   Ceiling: Unl
Heat Index: 52°   Visibility: 10mi
Dew Point: 45°   Wind: 6mph
Humidity: 77%   Direction: 330°NNW
Pressure: 30.09"   Gusts: NA
Location:  32.9859°N, 80.1166°W
Report Text: KCHS 231256Z 33005KT 10SM CLR 11/07 A3009 RMK AO2 SLP187 T01110072
Loading
Personal Weather Stations






























Interactive Weather Map
Tropical Storm Tracking
New forecast layout! Learn more

10-Day Weather Forecast

Advertisements
Track Severe Weather on mobile